createdAt,value
2022-08-29T00:01:01.664Z,12.20
2022-08-29T01:17:33.450Z,8.75
2022-08-29T01:22:51.777Z,8.07
2022-08-29T01:28:02.723Z,9.23
2022-08-29T01:33:05.564Z,10.88
2022-08-29T01:38:09.599Z,11.82
2022-08-29T01:43:13.628Z,11.23
2022-08-29T01:48:16.543Z,8.85
2022-08-29T01:53:19.373Z,12.13
2022-08-29T01:58:23.382Z,11.27
2022-08-29T02:03:26.110Z,14.55
2022-08-29T02:08:29.095Z,11.65
2022-08-29T02:13:33.379Z,7.82
2022-08-29T02:18:36.219Z,12.63
2022-08-29T02:23:39.649Z,12.45
2022-08-29T02:28:44.181Z,11.70
2022-08-29T02:33:47.110Z,7.30
2022-08-29T02:38:50.582Z,9.27
2022-08-29T02:43:54.615Z,8.55
2022-08-29T02:49:00.962Z,8.85
2022-08-29T02:54:04.928Z,10.70
2022-08-29T02:59:09.636Z,8.15
2022-08-29T03:04:12.327Z,10.80
2022-08-29T03:09:15.052Z,11.15
2022-08-29T03:14:19.110Z,10.27
2022-08-29T03:19:22.868Z,9.73
2022-08-29T03:24:26.414Z,9.68
2022-08-29T03:29:31.230Z,9.07
2022-08-29T03:34:34.286Z,8.18
2022-08-29T03:39:37.837Z,12.02
2022-08-29T03:44:43.421Z,10.27
2022-08-29T03:49:46.141Z,13.18
2022-08-29T03:54:48.941Z,10.40
2022-08-29T03:59:54.259Z,11.32
2022-08-29T04:05:09.809Z,10.10
2022-08-29T04:10:15.425Z,10.20
2022-08-29T04:15:19.742Z,14.27
2022-08-29T04:20:25.246Z,17.42
2022-08-29T04:25:37.109Z,13.30
2022-08-29T04:30:51.482Z,12.85
2022-08-29T04:35:54.846Z,12.55
2022-08-29T04:40:57.529Z,10.73
2022-08-29T04:46:02.121Z,11.57
2022-08-29T04:51:04.972Z,12.23
2022-08-29T04:56:09.881Z,9.82
2022-08-29T05:01:17.170Z,12.15
2022-08-29T05:06:22.716Z,12.02
2022-08-29T05:11:25.481Z,11.18
2022-08-29T05:16:31.663Z,14.60
2022-08-29T05:21:36.893Z,9.18
2022-08-29T05:26:42.924Z,15.40
2022-08-29T05:31:48.463Z,11.45
2022-08-29T05:36:51.153Z,12.88
2022-08-29T05:41:55.765Z,13.77
2022-08-29T05:47:00.169Z,8.15
2022-08-29T05:52:02.998Z,8.70
2022-08-29T05:57:06.498Z,9.93
2022-08-29T06:02:11.493Z,12.30
2022-08-29T06:07:14.826Z,10.65
2022-08-29T06:12:17.596Z,9.70
2022-08-29T06:17:21.608Z,10.30
2022-08-29T06:22:24.306Z,13.25
2022-08-29T06:27:27.043Z,7.75
2022-08-29T06:32:31.061Z,10.32
2022-08-29T06:37:34.327Z,8.63
2022-08-29T06:42:36.997Z,8.82
2022-08-29T06:47:40.998Z,11.70
2022-08-29T06:52:43.856Z,9.15
2022-08-29T06:57:49.916Z,12.00
2022-08-29T07:02:54.218Z,14.25
2022-08-29T07:07:56.966Z,14.00
2022-08-29T07:12:59.635Z,16.75
2022-08-29T07:18:03.780Z,12.68
2022-08-29T07:23:06.472Z,7.80
2022-08-29T07:28:11.702Z,15.10
2022-08-29T07:33:17.398Z,14.02
2022-08-29T07:38:20.080Z,7.72
2022-08-29T07:43:27.388Z,11.02
2022-08-29T07:48:31.863Z,6.47
2022-08-29T07:53:35.176Z,9.05
2022-08-29T07:58:38.564Z,9.35
2022-08-29T08:03:42.623Z,6.72
2022-08-29T08:08:45.788Z,6.32
2022-08-29T08:13:49.157Z,11.88
2022-08-29T08:18:54.821Z,8.80
2022-08-29T08:23:57.499Z,9.50
2022-08-29T08:29:00.935Z,9.73
2022-08-29T08:34:04.930Z,8.10
2022-08-29T08:39:07.632Z,11.05
2022-08-29T08:44:29.934Z,11.15
2022-08-29T08:49:45.304Z,8.65
2022-08-29T08:54:53.174Z,8.05
2022-08-29T08:59:59.387Z,9.85
2022-08-29T09:05:19.456Z,9.48
2022-08-29T09:10:33.951Z,8.70
2022-08-29T09:15:42.104Z,7.75
2022-08-29T09:20:46.163Z,5.30
2022-08-29T09:25:49.289Z,6.50
2022-08-29T09:31:22.569Z,8.35
2022-08-29T09:36:39.516Z,11.02
2022-08-29T09:41:42.798Z,8.77
2022-08-29T09:46:45.490Z,7.72
2022-08-29T09:51:50.440Z,7.50
2022-08-29T09:56:56.867Z,7.13
2022-08-29T10:02:23.140Z,10.02
2022-08-29T10:07:29.817Z,8.13
2022-08-29T10:12:39.077Z,9.30
2022-08-29T10:18:04.813Z,7.75
2022-08-29T10:23:21.295Z,7.32
2022-08-29T10:28:33.357Z,6.70
2022-08-29T10:33:55.128Z,5.35
2022-08-29T10:39:07.616Z,5.32
2022-08-29T10:44:20.269Z,5.45
2022-08-29T10:49:43.026Z,10.27
2022-08-29T10:55:07.278Z,8.32
2022-08-29T11:00:13.534Z,7.05
2022-08-29T11:05:20.114Z,8.57
2022-08-29T11:10:27.798Z,9.98
2022-08-29T11:15:36.323Z,7.55
2022-08-29T11:20:43.703Z,7.60
2022-08-29T11:25:47.933Z,6.03
2022-08-29T11:30:58.405Z,6.05
2022-08-29T11:36:17.388Z,6.25
2022-08-29T11:41:43.999Z,6.72
2022-08-29T11:46:53.596Z,5.07
2022-08-29T11:52:01.910Z,9.30
2022-08-29T11:57:52.629Z,5.13
2022-08-29T12:02:56.880Z,4.70
2022-08-29T12:08:14.500Z,4.35
2022-08-29T12:14:04.614Z,3.78
2022-08-29T12:19:09.985Z,4.30
2022-08-29T12:24:32.494Z,4.53
2022-08-29T12:29:44.743Z,5.38
2022-08-29T12:35:06.080Z,5.88
2022-08-29T12:40:45.649Z,4.78
2022-08-29T12:45:50.176Z,3.65
2022-08-29T12:50:54.753Z,4.72
2022-08-29T12:55:59.969Z,5.90
2022-08-29T13:01:03.775Z,3.63
2022-08-29T13:06:12.050Z,5.47
2022-08-29T13:11:14.808Z,5.82
2022-08-29T13:16:28.943Z,7.53
2022-08-29T13:21:34.442Z,4.05
2022-08-29T13:26:41.337Z,5.32
2022-08-29T13:31:44.348Z,4.55
2022-08-29T13:36:59.139Z,5.10
2022-08-29T13:42:19.435Z,5.15
2022-08-29T13:47:26.037Z,3.53
2022-08-29T13:52:31.557Z,6.10
2022-08-29T13:57:35.225Z,6.05
2022-08-29T14:02:44.694Z,5.22
2022-08-29T14:07:49.122Z,6.10
2022-08-29T14:12:51.878Z,5.82
2022-08-29T14:17:54.635Z,6.47
2022-08-29T14:22:58.772Z,3.60
2022-08-29T14:28:01.461Z,5.22
2022-08-29T14:33:06.616Z,6.97
2022-08-29T14:38:13.165Z,4.47
2022-08-29T14:43:15.949Z,3.85
2022-08-29T14:48:19.270Z,2.72
2022-08-29T14:53:23.410Z,4.15
2022-08-29T14:58:26.431Z,5.38
2022-08-29T15:03:29.137Z,4.35
2022-08-29T15:08:33.120Z,6.05
2022-08-29T15:13:35.796Z,3.95
2022-08-29T15:19:31.231Z,3.13
2022-08-29T15:24:05.198Z,3.92
2022-08-29T15:29:08.902Z,4.90
2022-08-29T15:34:11.598Z,3.80
2022-08-29T15:39:15.692Z,4.38
2022-08-29T15:44:18.493Z,4.78
2022-08-29T15:49:23.827Z,4.88
2022-08-29T15:54:28.640Z,3.22
2022-08-29T15:59:56.575Z,4.50
2022-08-29T16:04:56.982Z,5.95
2022-08-29T16:10:04.560Z,3.15
2022-08-29T16:15:13.132Z,5.43
2022-08-29T16:20:16.067Z,3.53
2022-08-29T16:25:20.432Z,6.40
2022-08-29T16:30:23.167Z,3.70
2022-08-29T16:35:26.041Z,3.28
2022-08-29T16:40:30.155Z,2.70
2022-08-29T16:45:33.522Z,5.95
2022-08-29T16:50:36.512Z,4.43
2022-08-29T16:55:40.553Z,4.05
2022-08-29T17:00:44.624Z,3.55
2022-08-29T17:05:47.333Z,4.57
2022-08-29T17:10:50.676Z,6.40
2022-08-29T17:15:52.518Z,5.25
2022-08-29T17:20:56.155Z,5.25
2022-08-29T17:26:01.597Z,5.25
2022-08-29T17:31:05.408Z,4.75
2022-08-29T17:36:11.026Z,5.30
2022-08-29T17:41:17.367Z,9.30
2022-08-29T17:46:21.834Z,3.13
2022-08-29T17:51:24.974Z,5.53
2022-08-29T17:56:41.955Z,4.38
2022-08-29T18:01:48.449Z,4.47
2022-08-29T18:06:51.837Z,7.45
2022-08-29T18:11:58.212Z,8.88
2022-08-29T18:17:00.993Z,5.18
2022-08-29T18:22:03.957Z,6.82
2022-08-29T18:27:07.984Z,7.03
2022-08-29T18:32:11.670Z,7.30
2022-08-29T18:37:14.533Z,5.88
2022-08-29T18:42:38.859Z,3.83
2022-08-29T18:47:42.411Z,6.63
2022-08-29T18:52:45.931Z,7.85
2022-08-29T18:57:51.354Z,9.45
2022-08-29T19:02:54.741Z,10.48
2022-08-29T19:08:04.784Z,4.60
2022-08-29T19:13:10.261Z,6.25
2022-08-29T19:19:25.628Z,7.95
2022-08-29T19:25:00.163Z,6.32
2022-08-29T19:30:41.490Z,5.68
2022-08-29T19:43:47.873Z,6.70
2022-08-29T20:16:16.897Z,6.95
2022-08-29T20:22:33.650Z,10.30
2022-08-29T20:27:34.390Z,7.20
2022-08-29T21:12:04.363Z,10.90
2022-08-29T22:33:22.473Z,7.90
2022-08-29T22:51:42.027Z,10.55
2022-08-29T23:30:38.909Z,7.03
2022-08-29T23:55:55.289Z,9.32
